Las Heras, Argentina
Current Conditions -  °F | °C
As of 3:00 PM on Monday 24 Nov 2014 (Local Time) from SAME Reporting Station
Few Clouds Few Clouds  
Wind Chill: 75°   Ceiling: Unl
Heat Index: 75°   Visibility: 6mi
Dew Point: 36°   Wind: 6mph
Humidity: 24%   Direction: 140°SE
Pressure: 29.91"   Gusts: NA
Location:  32.85°S, 68.82°W
Report Text: SAME 241800Z 14005KT 9999 FEW040 24/02 Q1013
Loading
Personal Weather Stations






























Interactive Weather Map New forecast layout! Learn more

10-Day Weather Forecast

Advertisements
Track Severe Weather on mobile